createdAt,value
2019-05-22T00:00:46.975Z,86.00
2019-05-22T00:03:19.899Z,85.40
2019-05-22T00:05:51.602Z,85.00
2019-05-22T00:08:23.385Z,84.50
2019-05-22T00:10:56.305Z,85.50
2019-05-22T00:13:30.948Z,85.40
2019-05-22T00:16:04.247Z,85.30
2019-05-22T00:18:36.703Z,84.80
2019-05-22T00:21:08.989Z,84.60
2019-05-22T00:23:42.593Z,84.60
2019-05-22T00:26:15.505Z,85.40
2019-05-22T00:28:47.141Z,86.00
2019-05-22T00:31:19.737Z,85.80
2019-05-22T00:33:51.723Z,85.30
2019-05-22T00:36:22.608Z,84.90
2019-05-22T00:38:53.619Z,84.20
2019-05-22T00:41:25.826Z,84.00
2019-05-22T00:43:58.135Z,83.70
2019-05-22T00:46:29.713Z,83.60
2019-05-22T00:49:02.052Z,83.60
2019-05-22T00:51:34.564Z,84.20
2019-05-22T00:54:08.138Z,83.90
2019-05-22T00:56:40.604Z,83.50
2019-05-22T00:59:14.469Z,83.90
2019-05-22T01:01:47.770Z,84.40
2019-05-22T01:04:20.302Z,84.60
2019-05-22T01:06:52.935Z,83.90
2019-05-22T01:09:25.466Z,84.00
2019-05-22T01:11:56.981Z,83.20
2019-05-22T01:14:42.028Z,83.70
2019-05-22T01:17:01.840Z,83.90
2019-05-22T01:19:32.745Z,83.50
2019-05-22T01:22:03.849Z,83.20
2019-05-22T01:24:36.242Z,83.20
2019-05-22T01:27:08.728Z,84.30
2019-05-22T01:29:40.417Z,83.90
2019-05-22T01:32:13.212Z,83.30
2019-05-22T01:34:44.761Z,82.80
2019-05-22T01:37:16.534Z,83.20
2019-05-22T01:39:51.039Z,82.80
2019-05-22T01:42:25.979Z,82.50
2019-05-22T01:45:05.914Z,82.30
2019-05-22T01:47:34.658Z,82.10
2019-05-22T01:50:07.780Z,82.30
2019-05-22T01:52:39.598Z,82.80
2019-05-22T01:55:11.304Z,82.40
2019-05-22T01:57:42.780Z,82.60
2019-05-22T02:00:14.790Z,82.00
2019-05-22T02:02:45.977Z,82.10
2019-05-22T02:05:17.060Z,82.30
2019-05-22T02:07:48.088Z,83.20
2019-05-22T02:10:21.629Z,82.60
2019-05-22T02:12:56.186Z,82.80
2019-05-22T02:15:28.938Z,82.90
2019-05-22T02:18:01.097Z,82.80
2019-05-22T02:20:32.215Z,83.00
2019-05-22T02:23:04.242Z,83.40
2019-05-22T02:25:35.533Z,82.90
2019-05-22T02:28:07.552Z,82.80
2019-05-22T02:30:40.268Z,82.80
2019-05-22T02:33:11.744Z,82.80
2019-05-22T02:35:44.334Z,81.80
2019-05-22T02:38:15.479Z,82.70
2019-05-22T02:40:48.241Z,82.80
2019-05-22T02:43:19.794Z,83.60
2019-05-22T02:45:50.930Z,83.20
2019-05-22T02:48:22.906Z,82.70
2019-05-22T02:50:54.090Z,82.60
2019-05-22T02:53:26.817Z,82.80
2019-05-22T02:55:58.893Z,82.30
2019-05-22T02:58:31.763Z,82.30
2019-05-22T03:01:06.629Z,81.90
2019-05-22T03:03:38.976Z,81.70
2019-05-22T03:06:13.555Z,82.10
2019-05-22T03:08:47.280Z,81.30
2019-05-22T03:11:20.687Z,81.90
2019-05-22T03:16:46.256Z,82.30
2019-05-22T03:19:19.682Z,81.70
2019-05-22T03:21:50.931Z,81.60
2019-05-22T03:24:22.449Z,81.20
2019-05-22T03:26:55.119Z,80.70
2019-05-22T03:29:28.813Z,81.60
2019-05-22T03:31:59.826Z,81.00
2019-05-22T03:34:31.247Z,80.30
2019-05-22T03:37:02.237Z,80.20
2019-05-22T03:39:33.453Z,80.10
2019-05-22T03:42:06.414Z,79.60
2019-05-22T03:44:39.702Z,79.20
2019-05-22T03:47:12.134Z,79.20
2019-05-22T03:49:46.459Z,79.30
2019-05-22T03:52:18.446Z,78.60
2019-05-22T03:54:50.033Z,78.80
2019-05-22T03:57:22.716Z,78.20
2019-05-22T03:59:56.164Z,78.00
2019-05-22T04:02:27.951Z,77.60
2019-05-22T04:04:59.789Z,77.10
2019-05-22T04:07:31.497Z,76.50
2019-05-22T04:10:04.578Z,76.60
2019-05-22T04:12:36.373Z,76.70
2019-05-22T04:15:11.366Z,76.50
2019-05-22T04:17:46.225Z,76.50
2019-05-22T04:20:20.654Z,76.00
2019-05-22T04:22:53.320Z,74.80
2019-05-22T04:25:24.908Z,74.30
2019-05-22T04:27:56.704Z,75.30
2019-05-22T04:30:30.028Z,75.40
2019-05-22T04:33:01.497Z,75.10
2019-05-22T04:35:33.876Z,74.50
2019-05-22T04:38:05.615Z,74.60
2019-05-22T04:40:39.238Z,73.10
2019-05-22T04:43:10.858Z,74.10
2019-05-22T04:45:42.268Z,74.00
2019-05-22T04:48:14.214Z,74.10
2019-05-22T04:50:47.782Z,72.60
2019-05-22T04:53:19.697Z,73.10
2019-05-22T04:55:51.506Z,73.60
2019-05-22T04:58:24.697Z,73.60
2019-05-22T05:00:56.208Z,73.50
2019-05-22T05:03:28.359Z,73.20
2019-05-22T05:06:00.692Z,72.70
2019-05-22T05:08:32.356Z,73.30
2019-05-22T05:11:05.015Z,72.80
2019-05-22T05:13:36.673Z,72.80
2019-05-22T05:16:08.573Z,72.60
2019-05-22T05:18:39.966Z,72.50
2019-05-22T05:21:11.688Z,71.30
2019-05-22T05:23:43.162Z,72.40
2019-05-22T05:26:15.277Z,71.60
2019-05-22T05:28:47.719Z,72.50
2019-05-22T05:31:20.576Z,71.40
2019-05-22T05:33:54.008Z,71.60
2019-05-22T05:36:25.503Z,72.10
2019-05-22T05:38:57.772Z,70.70
2019-05-22T05:41:29.372Z,70.70
2019-05-22T05:44:01.950Z,70.70
2019-05-22T05:46:32.990Z,68.60
2019-05-22T05:49:03.986Z,68.60
2019-05-22T05:51:38.257Z,68.90
2019-05-22T05:54:12.791Z,68.50
2019-05-22T05:56:46.201Z,67.80
2019-05-22T05:59:18.946Z,67.40
2019-05-22T06:01:51.559Z,67.90
2019-05-22T06:04:33.942Z,68.10
2019-05-22T06:07:02.106Z,66.80
2019-05-22T06:09:33.624Z,68.20
2019-05-22T06:12:06.611Z,68.50
2019-05-22T06:14:38.082Z,68.10
2019-05-22T06:17:12.544Z,68.10
2019-05-22T06:19:46.634Z,67.60
2019-05-22T06:22:18.454Z,67.30
2019-05-22T06:24:51.919Z,65.50
2019-05-22T06:27:26.313Z,66.00
2019-05-22T06:30:00.754Z,67.50
2019-05-22T06:32:34.381Z,66.50
2019-05-22T06:35:06.153Z,66.80
2019-05-22T06:37:39.703Z,65.60
2019-05-22T06:40:12.417Z,65.70
2019-05-22T06:42:45.471Z,64.20
2019-05-22T06:45:16.634Z,63.80
2019-05-22T06:47:47.603Z,63.70
2019-05-22T06:50:18.487Z,64.70
2019-05-22T06:52:49.316Z,64.80
2019-05-22T06:55:20.364Z,65.10
2019-05-22T06:57:54.255Z,63.20
2019-05-22T07:00:27.087Z,62.00
2019-05-22T07:03:18.182Z,61.60
2019-05-22T07:05:49.210Z,61.10
2019-05-22T07:08:20.732Z,60.90
2019-05-22T07:10:52.178Z,62.30
2019-05-22T07:13:24.790Z,62.40
2019-05-22T07:15:56.725Z,62.40
2019-05-22T07:18:29.300Z,62.60
2019-05-22T07:21:00.849Z,61.90
2019-05-22T07:23:33.395Z,63.00
2019-05-22T07:26:04.759Z,63.10
2019-05-22T07:28:36.158Z,62.30
2019-05-22T07:31:07.215Z,61.90
2019-05-22T07:33:38.565Z,61.30
2019-05-22T07:36:13.632Z,60.90
2019-05-22T07:38:41.907Z,60.90
2019-05-22T07:41:12.915Z,60.10
2019-05-22T07:43:43.904Z,60.60
2019-05-22T07:46:14.981Z,61.30
2019-05-22T07:48:45.932Z,61.40
2019-05-22T07:51:17.462Z,60.40
2019-05-22T07:53:48.843Z,59.80
2019-05-22T07:56:21.312Z,59.80
2019-05-22T07:58:52.599Z,59.50
2019-05-22T08:01:24.275Z,59.10
2019-05-22T08:03:56.410Z,60.00
2019-05-22T08:06:28.055Z,60.00
2019-05-22T08:09:00.677Z,58.80
2019-05-22T08:11:31.848Z,59.80
2019-05-22T08:14:03.393Z,60.50
2019-05-22T08:16:34.983Z,60.20
2019-05-22T08:19:05.958Z,61.00
2019-05-22T08:21:37.281Z,60.80
2019-05-22T08:24:08.861Z,60.40
2019-05-22T08:26:53.844Z,60.80
2019-05-22T08:29:12.887Z,60.50
2019-05-22T08:31:44.536Z,60.90
2019-05-22T08:34:15.857Z,61.60
2019-05-22T08:36:49.277Z,61.30
2019-05-22T08:39:20.320Z,61.00
2019-05-22T08:41:51.932Z,62.00
2019-05-22T08:44:23.371Z,61.90
2019-05-22T08:46:55.005Z,61.70
2019-05-22T08:49:26.361Z,61.20
2019-05-22T08:51:57.276Z,61.10
2019-05-22T08:54:28.931Z,61.60
2019-05-22T08:56:59.892Z,61.80
2019-05-22T08:59:30.811Z,61.70
2019-05-22T09:02:01.878Z,61.50
2019-05-22T09:04:32.919Z,61.80
2019-05-22T09:07:04.202Z,60.90
2019-05-22T09:09:34.897Z,61.40
2019-05-22T09:12:08.460Z,61.70
2019-05-22T09:14:42.580Z,62.00
2019-05-22T09:17:14.086Z,62.70
2019-05-22T09:19:45.021Z,62.00
2019-05-22T09:22:15.946Z,62.20
2019-05-22T09:24:48.613Z,61.40
2019-05-22T09:27:20.043Z,60.50
2019-05-22T09:29:52.411Z,61.10
2019-05-22T09:32:25.422Z,61.50
2019-05-22T09:34:56.981Z,61.10
2019-05-22T09:37:27.899Z,61.20
2019-05-22T09:39:58.762Z,61.90
2019-05-22T09:42:30.322Z,60.40
2019-05-22T09:45:01.243Z,61.10
2019-05-22T09:47:32.859Z,61.20
2019-05-22T09:50:04.543Z,61.20
2019-05-22T09:52:35.983Z,61.20
2019-05-22T09:55:07.518Z,61.10
2019-05-22T09:57:39.265Z,61.30
2019-05-22T10:00:12.809Z,61.20
2019-05-22T10:02:44.657Z,61.10
2019-05-22T10:05:18.242Z,60.60
2019-05-22T10:07:59.990Z,61.10
2019-05-22T10:10:22.787Z,61.80
2019-05-22T10:12:53.598Z,62.30
2019-05-22T10:15:24.544Z,62.30
2019-05-22T10:17:55.560Z,61.90
2019-05-22T10:20:26.476Z,61.10
2019-05-22T10:23:12.567Z,61.40
2019-05-22T10:25:30.621Z,61.30
2019-05-22T10:28:01.849Z,61.30
2019-05-22T10:30:33.448Z,61.40
2019-05-22T10:33:04.511Z,61.50
2019-05-22T10:35:37.698Z,61.90
2019-05-22T10:38:09.992Z,61.60
2019-05-22T10:40:40.927Z,61.70
2019-05-22T10:43:11.848Z,61.70
2019-05-22T10:45:43.207Z,61.30
2019-05-22T10:48:15.993Z,61.40
2019-05-22T10:50:46.883Z,62.00
2019-05-22T10:53:32.245Z,61.80
2019-05-22T10:55:50.414Z,61.50
2019-05-22T10:58:21.430Z,61.50
2019-05-22T11:00:53.314Z,61.80
2019-05-22T11:03:24.733Z,62.20
2019-05-22T11:06:06.383Z,62.30
2019-05-22T11:08:31.737Z,62.60
2019-05-22T11:11:00.801Z,62.70
2019-05-22T11:13:34.180Z,62.80
2019-05-22T11:16:04.323Z,63.00
2019-05-22T11:18:35.315Z,63.40
2019-05-22T11:21:06.784Z,63.30
2019-05-22T11:23:51.026Z,63.50
2019-05-22T11:26:09.976Z,63.50
2019-05-22T11:28:40.834Z,63.30
2019-05-22T11:31:12.035Z,63.50
2019-05-22T11:33:43.185Z,63.60
2019-05-22T11:36:15.673Z,63.80
2019-05-22T11:38:46.556Z,63.90
2019-05-22T11:41:18.833Z,64.10
2019-05-22T11:43:49.754Z,64.20
2019-05-22T11:46:20.902Z,64.40
2019-05-22T11:48:52.136Z,64.50
2019-05-22T11:51:42.110Z,64.40
2019-05-22T11:54:13.245Z,64.60
2019-05-22T11:56:44.559Z,64.40
2019-05-22T11:59:16.524Z,64.70
2019-05-22T12:01:48.169Z,65.00
2019-05-22T12:04:19.612Z,64.80
2019-05-22T12:06:53.617Z,64.70
2019-05-22T12:09:24.551Z,64.70
2019-05-22T12:11:55.839Z,64.70
2019-05-22T12:17:15.352Z,65.00
2019-05-22T12:19:47.154Z,64.80
2019-05-22T12:22:20.033Z,64.90
2019-05-22T12:24:51.475Z,65.00
2019-05-22T12:27:22.783Z,65.00
2019-05-22T12:29:54.208Z,65.70
2019-05-22T12:32:25.864Z,65.80
2019-05-22T12:34:56.855Z,66.70
2019-05-22T12:37:28.193Z,67.00
2019-05-22T12:40:01.793Z,67.40
2019-05-22T12:42:33.287Z,68.00
2019-05-22T12:45:04.748Z,67.80
2019-05-22T12:47:37.336Z,67.70
2019-05-22T12:50:10.396Z,67.60
2019-05-22T12:52:41.832Z,68.10
2019-05-22T12:55:13.185Z,68.00
2019-05-22T12:57:44.171Z,68.30
2019-05-22T13:00:15.787Z,68.00
2019-05-22T13:02:48.092Z,68.50
2019-05-22T13:05:19.787Z,68.30
2019-05-22T13:07:51.335Z,68.50
2019-05-22T13:10:24.136Z,68.80
2019-05-22T13:12:55.330Z,68.60
2019-05-22T13:15:27.481Z,68.60
2019-05-22T13:18:05.715Z,68.60
2019-05-22T13:20:43.275Z,69.80
2019-05-22T13:23:20.769Z,68.60
2019-05-22T13:25:58.093Z,69.50
2019-05-22T13:28:35.014Z,68.70
2019-05-22T13:31:11.798Z,68.70
2019-05-22T13:33:47.394Z,69.00
2019-05-22T13:36:21.719Z,69.30
2019-05-22T13:38:52.940Z,69.30
2019-05-22T13:41:24.041Z,69.50
2019-05-22T13:43:55.825Z,70.10
2019-05-22T13:46:27.380Z,69.80
2019-05-22T13:48:59.774Z,69.80
2019-05-22T13:51:31.343Z,70.10
2019-05-22T13:54:02.219Z,70.20
2019-05-22T13:56:33.484Z,70.30
2019-05-22T13:59:07.802Z,70.40
2019-05-22T14:01:37.521Z,70.70
2019-05-22T14:04:09.337Z,70.50
2019-05-22T14:06:41.084Z,70.60
2019-05-22T14:09:20.381Z,70.70
2019-05-22T14:11:48.142Z,70.70
2019-05-22T14:14:19.521Z,71.10
2019-05-22T14:16:50.493Z,70.90
2019-05-22T14:19:21.446Z,71.20
2019-05-22T14:21:52.383Z,70.90
2019-05-22T14:24:23.354Z,70.80
2019-05-22T14:26:54.213Z,70.40
2019-05-22T14:29:25.445Z,70.70
2019-05-22T14:31:56.814Z,70.20
2019-05-22T14:34:28.329Z,70.40
2019-05-22T14:37:00.668Z,70.50
2019-05-22T14:39:32.396Z,70.40
2019-05-22T14:42:03.782Z,70.90
2019-05-22T14:44:34.827Z,70.70
2019-05-22T14:47:14.891Z,70.80
2019-05-22T14:49:38.628Z,71.10
2019-05-22T14:52:09.677Z,71.20
2019-05-22T14:54:44.421Z,71.60
2019-05-22T14:57:17.693Z,71.50
2019-05-22T14:59:49.636Z,71.60
2019-05-22T15:02:20.522Z,71.70
2019-05-22T15:04:51.829Z,71.90
2019-05-22T15:07:22.771Z,72.30
2019-05-22T15:09:53.542Z,72.30
2019-05-22T15:12:24.930Z,73.00
2019-05-22T15:14:55.933Z,72.00
2019-05-22T15:17:32.511Z,72.30
2019-05-22T15:20:00.525Z,72.30
2019-05-22T15:22:33.273Z,72.70
2019-05-22T15:25:05.747Z,73.30
2019-05-22T15:27:37.207Z,73.00
2019-05-22T15:30:11.130Z,73.00
2019-05-22T15:32:45.189Z,73.20
2019-05-22T15:35:19.654Z,73.40
2019-05-22T15:37:50.328Z,73.00
2019-05-22T15:40:21.522Z,73.10
2019-05-22T15:42:52.469Z,73.70
2019-05-22T15:45:26.935Z,72.80
2019-05-22T15:48:01.427Z,72.80
2019-05-22T15:50:35.555Z,73.00
2019-05-22T15:53:19.800Z,73.80
2019-05-22T15:55:52.114Z,74.20
2019-05-22T15:58:24.403Z,73.90
2019-05-22T16:00:59.989Z,73.90
2019-05-22T16:03:32.090Z,73.50
2019-05-22T16:06:04.960Z,74.20
2019-05-22T16:08:37.450Z,74.50
2019-05-22T16:11:11.037Z,74.40
2019-05-22T16:13:43.233Z,74.60
2019-05-22T16:16:16.860Z,74.40
2019-05-22T16:18:50.921Z,74.50
2019-05-22T16:21:22.836Z,74.90
2019-05-22T16:23:54.230Z,74.60
2019-05-22T16:26:26.727Z,74.80
2019-05-22T16:28:58.268Z,75.20
2019-05-22T16:31:30.670Z,75.00
2019-05-22T16:34:02.400Z,74.40
2019-05-22T16:36:35.927Z,74.70
2019-05-22T16:39:09.980Z,74.90
2019-05-22T16:41:45.212Z,75.80
2019-05-22T16:44:19.286Z,75.50
2019-05-22T16:46:52.285Z,75.40
2019-05-22T16:49:23.924Z,75.40
2019-05-22T16:51:56.560Z,75.20
2019-05-22T16:54:29.369Z,75.40
2019-05-22T16:57:00.940Z,75.10
2019-05-22T16:59:36.686Z,75.30
2019-05-22T17:02:07.483Z,75.20
2019-05-22T17:04:38.934Z,75.30
2019-05-22T17:07:12.827Z,75.10
2019-05-22T17:09:45.671Z,75.40
2019-05-22T17:12:19.420Z,75.20
2019-05-22T17:14:52.339Z,75.20
2019-05-22T17:17:23.388Z,75.10
2019-05-22T17:19:57.860Z,75.20
2019-05-22T17:22:29.104Z,75.10
2019-05-22T17:25:00.421Z,75.10
2019-05-22T17:27:33.589Z,75.40
2019-05-22T17:30:04.639Z,75.80
2019-05-22T17:32:35.609Z,75.80
2019-05-22T17:35:07.739Z,75.40
2019-05-22T17:37:38.973Z,75.40
2019-05-22T17:40:11.758Z,75.30
2019-05-22T17:42:43.881Z,75.80
2019-05-22T17:45:16.486Z,75.60
2019-05-22T17:47:47.905Z,75.50
2019-05-22T17:50:26.566Z,75.40
2019-05-22T17:52:53.538Z,75.40
2019-05-22T17:55:25.018Z,75.50
2019-05-22T17:57:56.228Z,75.50
2019-05-22T18:00:28.674Z,75.60
2019-05-22T18:03:01.187Z,76.90
2019-05-22T18:05:32.219Z,75.60
2019-05-22T18:08:03.755Z,75.60
2019-05-22T18:10:40.286Z,75.70
2019-05-22T18:13:11.251Z,75.90
2019-05-22T18:15:43.190Z,75.50
2019-05-22T18:18:14.219Z,75.50
2019-05-22T18:20:45.758Z,75.50
2019-05-22T18:23:16.807Z,75.50
2019-05-22T18:25:47.682Z,75.40
2019-05-22T18:28:19.050Z,76.50
2019-05-22T18:30:49.998Z,76.60
2019-05-22T18:33:20.821Z,76.50
2019-05-22T18:35:51.858Z,75.80
2019-05-22T18:38:22.943Z,75.90
2019-05-22T18:40:53.820Z,75.80
2019-05-22T18:43:24.819Z,75.80
2019-05-22T18:45:55.999Z,76.10
2019-05-22T18:48:27.226Z,76.50
2019-05-22T18:50:58.055Z,76.10
2019-05-22T18:53:29.641Z,76.10
2019-05-22T18:56:00.844Z,76.10
2019-05-22T18:58:31.738Z,75.80
2019-05-22T19:01:02.652Z,76.00
2019-05-22T19:03:33.474Z,76.40
2019-05-22T19:06:06.042Z,76.40
2019-05-22T19:08:36.928Z,76.40
2019-05-22T19:11:07.962Z,76.50
2019-05-22T19:13:38.825Z,77.30
2019-05-22T19:16:10.187Z,76.00
2019-05-22T19:18:41.333Z,76.40
2019-05-22T19:21:12.473Z,76.70
2019-05-22T19:23:43.580Z,76.70
2019-05-22T19:26:14.596Z,76.70
2019-05-22T19:28:45.396Z,76.60
2019-05-22T19:31:16.436Z,76.50
2019-05-22T19:33:47.442Z,76.70
2019-05-22T19:36:18.062Z,76.70
2019-05-22T19:38:49.359Z,76.30
2019-05-22T19:41:20.368Z,76.50
2019-05-22T19:43:51.292Z,76.40
2019-05-22T19:46:22.306Z,76.50
2019-05-22T19:48:53.677Z,76.40
2019-05-22T19:51:25.436Z,76.50
2019-05-22T19:53:58.766Z,76.50
2019-05-22T19:56:29.689Z,76.60
2019-05-22T19:59:00.751Z,76.40
2019-05-22T20:01:32.999Z,77.50
2019-05-22T20:04:04.530Z,76.60
2019-05-22T20:06:38.223Z,76.70
2019-05-22T20:09:11.213Z,76.80
2019-05-22T20:11:43.060Z,76.70
2019-05-22T20:14:14.010Z,76.80
2019-05-22T20:16:45.573Z,76.90
2019-05-22T20:19:16.542Z,76.90
2019-05-22T20:21:48.506Z,77.00
2019-05-22T20:24:20.120Z,76.90
2019-05-22T20:26:51.001Z,76.70
2019-05-22T20:29:22.015Z,76.70
2019-05-22T20:31:53.257Z,76.90
2019-05-22T20:34:24.140Z,76.90
2019-05-22T20:36:54.956Z,76.80
2019-05-22T20:39:29.546Z,76.90
2019-05-22T20:41:59.301Z,77.90
2019-05-22T20:44:31.864Z,76.90
2019-05-22T20:47:03.946Z,77.10
2019-05-22T20:49:35.194Z,77.10
2019-05-22T20:52:10.101Z,77.10
2019-05-22T20:54:39.622Z,77.10
2019-05-22T20:57:10.991Z,77.10
2019-05-22T20:59:43.291Z,77.00
2019-05-22T21:02:15.368Z,77.50
2019-05-22T21:04:49.269Z,77.70
2019-05-22T21:07:23.315Z,77.20
2019-05-22T21:09:54.313Z,77.70
2019-05-22T21:12:27.298Z,77.80
2019-05-22T21:14:58.588Z,77.70
2019-05-22T21:17:31.144Z,77.60
2019-05-22T21:20:02.764Z,77.70
2019-05-22T21:22:34.118Z,78.00
2019-05-22T21:25:05.844Z,78.30
2019-05-22T21:27:38.478Z,78.10
2019-05-22T21:30:12.749Z,78.00
2019-05-22T21:32:44.897Z,78.20
2019-05-22T21:35:18.394Z,78.30
2019-05-22T21:37:49.452Z,78.00
2019-05-22T21:40:22.593Z,78.00
2019-05-22T21:42:56.368Z,78.20
2019-05-22T21:45:28.005Z,78.40
2019-05-22T21:47:59.164Z,78.60
2019-05-22T21:50:30.083Z,78.60
2019-05-22T21:53:01.667Z,78.70
2019-05-22T21:55:33.395Z,78.30
2019-05-22T21:58:04.999Z,78.60
2019-05-22T22:00:39.641Z,78.30
2019-05-22T22:03:13.266Z,78.70
2019-05-22T22:05:46.082Z,79.00
2019-05-22T22:08:17.014Z,78.90
2019-05-22T22:10:49.281Z,79.10
2019-05-22T22:13:20.861Z,79.60
2019-05-22T22:15:51.940Z,79.70
2019-05-22T22:18:24.682Z,79.70
2019-05-22T22:20:56.374Z,79.50
2019-05-22T22:23:27.364Z,79.40
2019-05-22T22:25:58.274Z,79.60
2019-05-22T22:28:29.535Z,79.50
2019-05-22T22:31:01.988Z,79.70
2019-05-22T22:33:34.514Z,79.90
2019-05-22T22:36:07.542Z,79.90
2019-05-22T22:38:39.408Z,79.90
2019-05-22T22:41:11.272Z,79.80
2019-05-22T22:43:42.233Z,80.40
2019-05-22T22:46:15.609Z,80.50
2019-05-22T22:48:48.805Z,80.20
2019-05-22T22:51:20.422Z,80.40
2019-05-22T22:53:51.924Z,80.80
2019-05-22T22:56:23.319Z,80.90
2019-05-22T22:58:54.676Z,80.80
2019-05-22T23:01:29.268Z,80.60
2019-05-22T23:04:02.330Z,80.40
2019-05-22T23:06:36.322Z,80.30
2019-05-22T23:09:09.232Z,80.90
2019-05-22T23:11:43.061Z,81.00
2019-05-22T23:14:14.119Z,80.60
2019-05-22T23:16:45.451Z,80.90
2019-05-22T23:19:19.158Z,80.40
2019-05-22T23:21:54.137Z,80.70
2019-05-22T23:24:22.121Z,80.80
2019-05-22T23:26:53.419Z,81.10
2019-05-22T23:29:24.797Z,81.10
2019-05-22T23:31:58.595Z,80.90
2019-05-22T23:34:30.645Z,80.60
2019-05-22T23:37:02.458Z,81.10
2019-05-22T23:39:34.967Z,80.70
2019-05-22T23:42:09.619Z,80.50
2019-05-22T23:44:41.028Z,81.00
2019-05-22T23:47:13.130Z,80.40
2019-05-22T23:49:45.052Z,80.70
2019-05-22T23:52:16.716Z,80.90
2019-05-22T23:54:47.344Z,80.60
2019-05-22T23:57:19.496Z,80.10
2019-05-22T23:59:52.029Z,79.80
